• Join FlightAware (Why Join?)
  • Login
  • US Flag 
03:58AM EDT


 

Airport Tracker/Info


-or-


 

Live Flight TrackerFlight Track Log ✈ JBU695 ✈ 10-Feb-2014 ✈ KHPN - KMCO

Flight Track Log - Related Links

Times and Time Zones

All times are in EST time to prevent confusion due to time zone crossing. See the JBU695 flight status page for this flight to view local times or setup timezone preferences in your user account.

Time Position Orientation Groundspeed Altitude Reporting Facility
EST Latitude Longitude Course Direction KTS MPH feet Rate Location/Type
02:30PM 41.0833 -73.7333 207° Southwest 139 160 1,800  Level New York TRACON
02:31PM 41.0833 -73.7833 270° West 178 205 3,300 1,920 Climbing New York TRACON
02:32PM 40.7661 -73.8483 205° Southwest  Level FlightAware Approximate
02:32PM 41.0500 -73.8333 229° Southwest 231 266 5,500  Level New York TRACON
02:33PM 40.6674 -73.9071 199° South  Level FlightAware Approximate
02:33PM 40.9833 -73.8833 210° Southwest 269 310 8,800  Level New York TRACON
02:34PM 40.5648 -73.9527 199° South  Level FlightAware Approximate
02:35PM 40.4648 -74.0068 207° Southwest  Level FlightAware Approximate
02:35PM 40.8500 -74.0000 214° Southwest 318 366 12,000  Level New York TRACON
02:37PM 40.7000 -74.1167 211° Southwest 287 330 12,000  Level New York TRACON
02:38PM 40.6333 -74.1500 201° Southwest 311 358 12,000 1,500 Level New York TRACON
02:40PM 40.4303 -74.1872 188° South 334 384 16,900 2,220 Climbing New York Center
02:41PM 40.3278 -74.2031 187° South 344 396 19,400 2,400 Climbing New York Center
02:42PM 40.2292 -74.2175 186° South 350 403 22,000 2,160 Climbing New York Center
02:43PM 40.1272 -74.2339 187° South 351 404 23,900 1,620 Climbing New York Center
02:45PM 39.9875 -74.2756 193° South 351 404 26,300 1,500 Climbing Washington Center
02:46PM 39.9050 -74.3528 216° Southwest 331 381 27,900 1,380 Climbing Washington Center
02:46PM 39.8792 -74.3739 212° Southwest 332 382 28,400 1,560 Climbing New York Center
02:47PM 39.8308 -74.4217 217° Southwest 338 389 29,500 1,920 Climbing Washington Center
02:48PM 39.7689 -74.5008 225° Southwest 320 368 31,300 1,380 Climbing Washington Center
02:49PM 39.7072 -74.5800 225° Southwest 315 362 32,300 1,020 Climbing Washington Center
02:50PM 39.6433 -74.6644 226° Southwest 321 369 33,400 1,020 Climbing Washington Center
02:51PM 39.5833 -74.7461 226° Southwest 321 369 34,400 900 Climbing Washington Center
02:52PM 39.5131 -74.8061 213° Southwest 331 381 35,200 780 Climbing Washington Center
02:53PM 39.4175 -74.8636 205° Southwest 343 395 36,000 360 Climbing Washington Center
02:54PM 39.3261 -74.9181 205° Southwest 350 403 36,000  Level Washington Center
02:55PM 39.2347 -74.9753 206° Southwest 363 418 36,000  Level Washington Center
02:56PM 39.1433 -75.0322 206° Southwest 369 425 36,000  Level Washington Center
02:57PM 39.0519 -75.0892 206° Southwest 369 425 36,000  Level Washington Center
02:58PM 38.9603 -75.1458 206° Southwest 364 419 36,000  Level Washington Center
03:00PM 38.7772 -75.2536 205° Southwest 364 419 36,000  Level Washington Center
03:01PM 38.6856 -75.3097 206° Southwest 364 419 36,000 540 Level Washington Center
03:02PM 38.5942 -75.3658 206° Southwest 364 419 37,100 960 Climbing Washington Center
03:03PM 38.5044 -75.4192 205° Southwest 364 419 38,000 420 Climbing Washington Center
03:04PM 38.4150 -75.4725 205° Southwest 358 412 38,000  Level Washington Center
03:05PM 38.3233 -75.5308 207° Southwest 363 418 38,000  Level Washington Center
03:06PM 38.2294 -75.5969 209° Southwest 371 427 38,000  Level Washington Center
03:07PM 38.1378 -75.6603 209° Southwest 376 433 38,000  Level Washington Center
03:08PM 38.0481 -75.7236 209° Southwest 371 427 38,000  Level Washington Center
03:09PM 37.9728 -75.7867 213° Southwest 371 427 38,000  Level Washington Center
03:10PM 37.8706 -75.8522 207° Southwest 366 421 38,000  Level Washington Center
03:11PM 37.7806 -75.9122 208° Southwest 373 429 38,000  Level Washington Center
03:12PM 37.7011 -75.9775 213° Southwest 373 429 38,000  Level Washington Center
03:13PM 37.6114 -76.0400 209° Southwest 378 435 38,000  Level Washington Center
03:14PM 37.5192 -76.1050 209° Southwest 378 435 38,000  Level Washington Center
03:15PM 37.4189 -76.1697 207° Southwest 384 442 38,000  Level Washington Center
03:16PM 37.3289 -76.2317 209° Southwest 379 436 38,000  Level Washington Center
03:17PM 37.2367 -76.2961 209° Southwest 374 430 38,000  Level Washington Center
03:18PM 37.1467 -76.3606 210° Southwest 374 430 38,000  Level Washington Center
03:22PM 36.7881 -76.6061 207° Southwest 374 430 38,000  Level Washington Center
03:27PM 36.3303 -76.9222 206° Southwest 379 436 38,000  Level Washington Center
03:28PM 36.2356 -76.9825 207° Southwest 379 436 38,000  Level Washington Center
03:29PM 36.1453 -77.0453 209° Southwest 379 436 38,000  Level Washington Center
03:30PM 36.0506 -77.1053 207° Southwest 379 436 38,000  Level Washington Center
03:31PM 35.9863 -77.1030 207° Southwest  Level Estimated
03:31PM 35.9617 -77.1908 218° Southwest 379 436 38,000  Level Washington Center
03:32PM 35.8950 -77.1588 206° Southwest  Level Estimated
03:32PM 35.8836 -77.2686 219° Southwest 379 436 38,000  Level Washington Center
03:33PM 35.8031 -77.3489 219° Southwest 379 436 38,000  Level Washington Center
03:34PM 35.7183 -77.4264 217° Southwest 379 436 38,000  Level Washington Center
03:35PM 35.6381 -77.5064 219° Southwest 379 436 38,000  Level Washington Center
03:36PM 35.5553 -77.5861 218° Southwest 373 429 38,000  Level Washington Center
03:37PM 35.4725 -77.6631 217° Southwest 373 429 38,000  Level Washington Center
03:38PM 35.3897 -77.7397 217° Southwest 373 429 38,000  Level Washington Center
03:39PM 35.3069 -77.8217 219° Southwest 373 429 38,000  Level Washington Center
03:40PM 35.2242 -77.9008 218° Southwest 373 429 38,000  Level Washington Center
03:41PM 35.1411 -77.9797 218° Southwest 373 429 38,000  Level Washington Center
03:42PM 35.0561 -78.0583 217° Southwest 378 435 38,000  Level Washington Center
03:43PM 34.9711 -78.1367 217° Southwest 378 435 38,000  Level Washington Center
03:44PM 34.8900 -78.2128 218° Southwest 378 435 38,000  Level Washington Center
03:46PM 34.6669 -78.4297 218° Southwest 400 460 38,000  Level Jacksonville Center
03:47PM 34.5800 -78.5025 215° Southwest 400 460 38,000  Level Jacksonville Center
03:48PM 34.4911 -78.5925 220° Southwest 394 453 38,000  Level Jacksonville Center
03:49PM 34.4061 -78.6697 217° Southwest 389 448 38,000  Level Jacksonville Center
03:51PM 34.2322 -78.8314 217° Southwest 394 453 38,000  Level Jacksonville Center
03:54PM 33.9767 -79.0686 217° Southwest 394 453 38,000  Level Jacksonville Center
03:55PM 33.8872 -79.1500 217° Southwest 405 466 38,000  Level Jacksonville Center
03:56PM 33.8000 -79.2289 217° Southwest 405 466 38,000  Level Jacksonville Center
03:57PM 33.7267 -79.2892 214° Southwest 405 466 38,000  Level Jacksonville Center
03:58PM 33.6350 -79.3728 217° Southwest 400 460 38,000  Level Jacksonville Center
03:59PM 33.5475 -79.4511 217° Southwest 400 460 38,000  Level Jacksonville Center
04:00PM 33.5859 -79.4156 217° Southwest  Level FlightAware Approximate
04:00PM 33.4600 -79.5317 218° Southwest 405 466 38,000  Level Jacksonville Center
04:01PM 33.3744 -79.6119 218° Southwest 405 466 38,000  Level Jacksonville Center
04:02PM 33.2867 -79.6897 217° Southwest 405 466 38,000  Level Jacksonville Center
04:03PM 33.1967 -79.7700 217° Southwest 405 466 38,000  Level Jacksonville Center
04:04PM 33.1089 -79.8472 216° Southwest 405 466 38,000  Level Jacksonville Center
04:05PM 33.0189 -79.9247 216° Southwest 405 466 38,000  Level Jacksonville Center
04:06PM 32.9269 -80.0044 216° Southwest 405 466 38,000  Level Jacksonville Center
04:07PM 32.8264 -80.0869 215° Southwest 405 466 38,000  Level Jacksonville Center
04:08PM 32.7319 -80.1589 213° Southwest 405 466 38,000  Level Jacksonville Center
04:10PM 32.5450 -80.2975 209° Southwest 400 460 38,000  Level Jacksonville Center
04:12PM 32.3556 -80.4358 212° Southwest 406 467 38,000  Level Jacksonville Center
04:13PM 32.2589 -80.5047 211° Southwest 407 468 38,000  Level Jacksonville Center
04:14PM 32.1642 -80.5758 212° Southwest 407 468 38,000  Level Jacksonville Center
04:15PM 32.0714 -80.6444 212° Southwest 407 468 38,000  Level Jacksonville Center
04:16PM 31.9869 -80.7053 211° Southwest 407 468 38,000  Level Jacksonville Center
04:17PM 31.8797 -80.7786 210° Southwest 407 468 38,000  Level Jacksonville Center
04:20PM 31.7021 -80.8983 210° Southwest  Level FlightAware Approximate
04:20PM 31.5928 -80.9878 210° Southwest 407 468 38,000  Level Jacksonville Center
04:22PM 31.3594 -81.0364 186° South 433 498 38,000 -180 Level Jacksonville Center
04:24PM 31.1181 -81.0775 182° South 438 504 37,500 -540 Descending Jacksonville Center
04:25PM 30.9972 -81.0992 189° South 438 504 36,500 -1,020 Descending Jacksonville Center
04:27PM 30.7556 -81.1328 187° South 443 510 34,500 -840 Descending Jacksonville Center
04:28PM 30.6325 -81.1519 188° South 443 510 34,000 -300 Descending Jacksonville Center
04:29PM 30.5072 -81.1494 179° South 443 510 34,000  Level Jacksonville Center
04:30PM 30.3797 -81.1469 179° South 443 510 34,000  Level Jacksonville Center
04:31PM 30.2525 -81.1419 178° South 448 516 34,000 -300 Level Jacksonville Center
04:32PM 30.1417 -81.1392 179° South 453 521 33,500 -1,500 Descending Jacksonville Center
04:33PM 30.0164 -81.1367 179° South 458 527 31,100 -2,460 Descending Jacksonville Center
04:34PM 29.8869 -81.1319 178° South 458 527 28,600 -2,520 Descending Jacksonville Center
04:36PM 29.6322 -81.1269 180° South 458 527 23,700 -2,400 Descending Jacksonville Center
04:37PM 29.5153 -81.1242 179° South 445 512 21,400 -2,280 Descending Jacksonville Center
04:38PM 29.4003 -81.1192 178° South 425 489 19,200 -2,220 Descending Jacksonville Center
04:39PM 29.2917 -81.1139 178° South 411 473 17,000 -2,100 Descending Jacksonville Center
04:41PM 29.0744 -81.0964 176° South 398 458 12,900 -1,680 Descending Jacksonville Center
04:42PM 28.9742 -81.0889 176° South 386 444 12,000 -480 Descending Jacksonville Center
04:43PM 28.8700 -81.1050 188° South 380 437 12,000 -660 Level Jacksonville Center
04:44PM 28.7681 -81.1281 191° South 380 437 10,700 -1,020 Descending Jacksonville Center
04:45PM 28.6744 -81.1417 187° South 367 422 10,000 -720 Descending Jacksonville Center
04:46PM 28.5931 -81.1547 188° South 332 382 9,300 -540 Descending Jacksonville Center
04:48PM 28.4833 -81.1667 185° South 252 290 8,800 -600 Descending Orlando TRACON
04:49PM 28.4167 -81.1833 192° South 233 268 7,900 -1,260 Descending Orlando TRACON
04:50PM 28.3500 -81.1833 180° South 230 265 6,300 -1,680 Descending Orlando TRACON
04:51PM 28.2833 -81.1833 180° South 225 259 4,600 -1,800 Descending Orlando TRACON
04:52PM 28.2833 -81.2500 270° West 213 245 2,700 -1,500 Descending Orlando TRACON
04:53PM 28.3000 -81.3167 286° West 212 244 1,600 -660 Descending Orlando TRACON
04:54PM 28.3500 -81.3167 360° North 124 143 1,400 -420 Descending Orlando TRACON
04:55PM 28.3833 -81.3167 360° North 134 154 800 -600 Descending Orlando TRACON